Time;durP1;ratioP1;P1;durP2;ratioP2;P2;SDS_P1;SDS_P2;PMS_P1;PMS_P2;Temp;Humidity;BMP_temperature;BMP_pressure;BME280_temperature;BME280_humidity;BME280_pressure;Samples;Min_cycle;Max_cycle;Signal;HPM_P1;HPM_P2
2022/06/17 00:00:56;;;;;;;6.37;2.20;;;16.90;99.50;;;;;;5008257;28;20431;-79
2022/06/17 00:03:25;;;;;;;3.77;2.87;;;16.90;99.90;;;;;;5007492;28;20456;-78
2022/06/17 00:05:53;;;;;;;3.20;2.17;;;16.60;99.00;;;;;;4992870;28;20435;-78
2022/06/17 00:08:25;;;;;;;3.90;2.20;;;16.50;99.30;;;;;;4993115;28;20979;-79
2022/06/17 00:10:51;;;;;;;5.33;1.97;;;16.50;99.90;;;;;;5000567;28;20435;-79
2022/06/17 00:13:18;;;;;;;8.40;2.17;;;16.60;99.90;;;;;;4999977;28;20936;-79
2022/06/17 00:15:45;;;;;;;6.40;2.30;;;16.60;99.70;;;;;;5001038;28;20177;-79
2022/06/17 00:18:16;;;;;;;3.90;2.93;;;16.50;99.20;;;;;;5001484;28;20527;-80
2022/06/17 00:20:42;;;;;;;5.83;1.77;;;16.50;99.30;;;;;;5015476;28;20502;-80
2022/06/17 00:23:20;;;;;;;2.83;2.10;;;16.40;99.30;;;;;;4982881;28;20448;-79
2022/06/17 00:25:47;;;;;;;3.03;2.23;;;16.40;98.90;;;;;;5006838;28;20438;-77
2022/06/17 00:28:21;;;;;;;2.40;2.20;;;16.60;99.30;;;;;;5007297;28;20502;-79
2022/06/17 00:30:48;;;;;;;3.10;1.60;;;16.60;99.60;;;;;;5006332;28;20495;-76
2022/06/17 00:33:16;;;;;;;2.07;1.83;;;16.60;99.90;;;;;;4991641;28;20443;-77
2022/06/17 00:35:51;;;;;;;3.03;1.83;;;16.70;99.90;;;;;;4991516;28;20892;-76
2022/06/17 00:38:25;;;;;;;2.17;1.97;;;16.70;99.90;;;;;;4992088;28;20429;-78
2022/06/17 00:40:53;;;;;;;5.83;2.27;;;16.70;99.90;;;;;;4991837;28;20429;-78
2022/06/17 00:43:25;;;;;;;3.10;2.40;;;16.70;99.90;;;;;;4993617;28;20447;-80
2022/06/17 00:46:20;;;;;;;5.53;2.57;;;16.70;99.90;;;;;;4993924;28;20800;-80
2022/06/17 00:49:00;;;;;;;2.30;2.10;;;16.60;99.90;;;;;;4993000;28;20460;-79
2022/06/17 00:51:32;;;;;;;7.43;2.40;;;16.60;99.90;;;;;;4993517;28;20470;-80
2022/06/17 00:54:19;;;;;;;4.43;2.60;;;16.50;99.90;;;;;;4992201;28;20967;-79
2022/06/17 00:56:44;;;;;;;7.63;2.63;;;16.20;99.90;;;;;;4993424;28;20916;-79
2022/06/17 00:59:15;;;;;;;4.00;2.20;;;16.10;99.90;;;;;;4992182;28;20436;-80
2022/06/17 01:02:01;;;;;;;4.10;2.10;;;16.10;99.90;;;;;;4993065;28;20677;-79
2022/06/17 01:04:32;;;;;;;3.43;2.00;;;16.10;99.90;;;;;;4991986;28;20839;-79
2022/06/17 01:07:11;;;;;;;2.90;2.33;;;16.20;99.90;;;;;;5007761;28;20485;-79
2022/06/17 01:09:57;;;;;;;3.30;2.10;;;16.20;99.90;;;;;;5007774;28;20471;-80
2022/06/17 01:12:36;;;;;;;6.40;2.63;;;16.20;99.90;;;;;;4992294;28;20433;-79
2022/06/17 01:15:03;;;;;;;2.93;2.70;;;16.00;99.90;;;;;;4992409;28;20458;-80
2022/06/17 01:17:30;;;;;;;6.83;3.20;;;15.80;99.90;;;;;;4993895;28;20431;-79
2022/06/17 01:19:59;;;;;;;3.13;2.37;;;15.70;99.90;;;;;;5008803;28;20546;-80
2022/06/17 01:22:34;;;;;;;6.77;2.47;;;15.70;99.90;;;;;;4992371;28;20424;-79
2022/06/17 01:25:02;;;;;;;2.60;2.40;;;15.70;99.90;;;;;;4994194;28;20426;-79
2022/06/17 01:27:44;;;;;;;3.33;2.30;;;15.80;99.90;;;;;;4993748;28;20431;-79
2022/06/17 01:30:23;;;;;;;3.00;2.33;;;15.80;99.90;;;;;;4993193;28;21039;-79
2022/06/17 01:33:16;;;;;;;2.67;2.23;;;15.90;99.90;;;;;;4993257;28;20438;-79
2022/06/17 01:35:47;;;;;;;4.40;2.40;;;15.90;99.90;;;;;;5007465;28;20451;-77
2022/06/17 01:38:13;;;;;;;6.30;2.60;;;15.90;99.90;;;;;;4991268;28;20415;-77
2022/06/17 01:40:39;;;;;;;4.23;2.60;;;15.90;99.90;;;;;;4991889;28;20445;-78
2022/06/17 01:43:09;;;;;;;3.03;2.50;;;15.90;99.90;;;;;;4990188;28;21015;-78
2022/06/17 01:45:44;;;;;;;3.60;2.40;;;15.90;99.90;;;;;;4990791;28;20411;-77
2022/06/17 01:48:10;;;;;;;2.43;2.23;;;15.80;99.90;;;;;;4990318;28;20424;-77
2022/06/17 01:50:39;;;;;;;3.93;2.70;;;15.80;99.90;;;;;;4991461;28;20495;-77
2022/06/17 01:53:16;;;;;;;3.97;2.20;;;15.70;99.90;;;;;;4990616;28;20437;-77
2022/06/17 01:55:48;;;;;;;3.50;2.30;;;15.60;99.90;;;;;;4992804;28;20417;-78
2022/06/17 01:58:26;;;;;;;4.07;2.43;;;15.50;99.90;;;;;;4993156;28;20474;-77
2022/06/17 02:00:54;;;;;;;6.67;2.77;;;15.50;99.90;;;;;;4996066;28;20423;-79
2022/06/17 02:03:32;;;;;;;2.33;2.13;;;15.50;99.90;;;;;;4996236;28;20431;-77
2022/06/17 02:06:46;;;;;;;4.23;2.30;;;15.40;99.90;;;;;;4993288;28;20409;-78
2022/06/17 02:09:13;;;;;;;8.00;2.63;;;15.40;99.90;;;;;;4977004;28;20516;-77
2022/06/17 02:11:38;;;;;;;7.13;2.90;;;15.50;99.90;;;;;;4990922;28;20424;-78
2022/06/17 02:14:07;;;;;;;3.43;2.57;;;15.40;99.90;;;;;;4990594;28;21180;-78
2022/06/17 02:16:42;;;;;;;3.07;2.77;;;15.30;99.90;;;;;;4989831;28;20434;-79
2022/06/17 02:19:09;;;;;;;3.20;2.77;;;15.30;99.90;;;;;;4991225;28;20991;-79
2022/06/17 02:21:42;;;;;;;3.63;2.53;;;15.10;99.90;;;;;;5006338;28;20477;-79
2022/06/17 02:24:10;;;;;;;9.47;2.87;;;15.30;99.90;;;;;;4991131;28;20444;-80
2022/06/17 02:26:38;;;;;;;3.00;2.70;;;15.20;99.90;;;;;;4989617;28;20430;-78
2022/06/17 02:29:06;;;;;;;3.03;2.73;;;15.20;99.90;;;;;;4989210;28;20991;-79
2022/06/17 02:31:33;;;;;;;3.13;2.83;;;15.00;99.90;;;;;;4973689;28;20934;-78
2022/06/17 02:33:59;;;;;;;5.20;2.67;;;14.90;99.90;;;;;;4990521;28;20440;-80
2022/06/17 02:36:38;;;;;;;3.63;2.97;;;14.70;99.90;;;;;;4990662;28;20447;-79
2022/06/17 02:39:05;;;;;;;6.93;3.27;;;14.50;99.90;;;;;;5006298;28;20430;-79
2022/06/17 02:41:31;;;;;;;6.00;2.80;;;14.30;99.90;;;;;;4991637;28;20442;-80
2022/06/17 02:44:11;;;;;;;2.43;2.27;;;14.20;99.90;;;;;;4990801;28;20582;-79
2022/06/17 02:46:40;;;;;;;5.80;2.60;;;14.40;99.90;;;;;;4990478;28;20422;-80
2022/06/17 02:49:18;;;;;;;3.00;2.70;;;14.50;99.90;;;;;;4990286;28;20491;-81
2022/06/17 02:51:44;;;;;;;3.90;2.57;;;14.50;99.90;;;;;;5009657;28;20479;-81
2022/06/17 02:54:15;;;;;;;3.43;2.20;;;14.70;99.90;;;;;;5010573;28;20479;-81
2022/06/17 02:56:44;;;;;;;5.70;2.60;;;14.90;99.90;;;;;;4998745;28;20427;-81
2022/06/17 02:59:22;;;;;;;2.93;2.57;;;14.70;99.90;;;;;;4988798;28;20444;-82
2022/06/17 03:01:51;;;;;;;5.43;2.83;;;14.40;99.90;;;;;;5019578;28;20424;-79
2022/06/17 03:04:25;;;;;;;5.33;3.57;;;14.20;99.90;;;;;;5013165;28;20536;-79
2022/06/17 03:06:51;;;;;;;5.10;2.80;;;14.20;99.90;;;;;;4996666;28;20856;-79
2022/06/17 03:09:32;;;;;;;5.13;2.40;;;14.20;99.90;;;;;;4996486;28;20839;-79
2022/06/17 03:12:23;;;;;;;6.30;2.73;;;14.40;99.90;;;;;;4995790;28;21033;-79
2022/06/17 03:15:09;;;;;;;4.73;3.23;;;14.50;99.90;;;;;;4993149;28;20523;-80
2022/06/17 03:17:40;;;;;;;7.00;2.77;;;14.70;99.90;;;;;;5012116;28;20441;-79
2022/06/17 03:20:10;;;;;;;4.63;2.57;;;14.80;99.90;;;;;;4997444;28;20468;-79
2022/06/17 03:22:36;;;;;;;2.90;2.70;;;14.70;99.90;;;;;;4996521;28;20456;-79
2022/06/17 03:25:23;;;;;;;4.77;3.00;;;14.90;99.90;;;;;;4994823;28;20487;-80
2022/06/17 03:27:52;;;;;;;4.40;2.60;;;14.80;99.90;;;;;;5012311;28;20438;-81
2022/06/17 03:30:31;;;;;;;7.33;2.63;;;14.70;99.90;;;;;;4996819;28;20476;-80
2022/06/17 03:33:18;;;;;;;3.10;2.73;;;14.70;99.90;;;;;;5011987;28;20457;-80
2022/06/17 03:35:46;;;;;;;4.93;3.83;;;14.70;99.90;;;;;;4995843;28;20430;-79
2022/06/17 03:38:24;;;;;;;4.30;3.53;;;14.60;99.90;;;;;;4993849;28;20531;-80
2022/06/17 03:40:55;;;;;;;5.23;3.13;;;14.60;99.90;;;;;;4992628;28;20467;-80
2022/06/17 03:43:31;;;;;;;5.13;2.90;;;14.60;99.90;;;;;;4993689;28;20453;-80
2022/06/17 03:46:01;;;;;;;4.03;3.30;;;14.60;99.90;;;;;;5008629;28;20435;-80
2022/06/17 03:48:32;;;;;;;3.03;2.77;;;14.70;99.90;;;;;;4992258;28;20972;-80
2022/06/17 03:50:58;;;;;;;8.30;3.43;;;14.70;99.90;;;;;;4992138;28;20484;-80
2022/06/17 03:53:26;;;;;;;2.93;2.63;;;14.80;99.90;;;;;;4993215;28;20441;-80
2022/06/17 03:55:54;;;;;;;3.00;2.70;;;14.90;99.90;;;;;;4993560;28;20186;-77
2022/06/17 03:58:20;;;;;;;3.53;3.10;;;14.90;99.90;;;;;;4993075;28;20420;-78
2022/06/17 04:01:07;;;;;;;6.63;3.10;;;15.00;99.90;;;;;;4993839;28;20495;-79
2022/06/17 04:03:35;;;;;;;5.80;2.67;;;15.00;99.90;;;;;;4993439;28;20871;-79
2022/06/17 04:06:08;;;;;;;4.60;2.93;;;15.10;99.90;;;;;;4993750;28;20427;-80
2022/06/17 04:08:49;;;;;;;11.53;3.40;;;15.20;99.90;;;;;;4992338;28;21055;-77
2022/06/17 04:11:14;;;;;;;8.67;2.90;;;15.30;99.90;;;;;;4992832;28;20518;-78
2022/06/17 04:13:41;;;;;;;4.97;2.80;;;15.40;99.90;;;;;;4990896;28;20462;-78
2022/06/17 04:16:30;;;;;;;7.20;2.90;;;15.50;99.90;;;;;;4992487;28;20268;-78
2022/06/17 04:19:18;;;;;;;3.83;3.17;;;15.60;99.90;;;;;;4992333;28;20405;-79
2022/06/17 04:21:43;;;;;;;6.87;3.60;;;15.40;99.90;;;;;;4991293;28;20422;-78
2022/06/17 04:24:16;;;;;;;3.50;2.90;;;15.40;99.90;;;;;;4990909;28;20456;-79
2022/06/17 04:26:44;;;;;;;2.40;2.20;;;15.20;99.90;;;;;;4991113;28;20847;-79
2022/06/17 04:29:19;;;;;;;5.57;3.20;;;15.20;99.90;;;;;;4991019;28;20482;-79
2022/06/17 04:31:53;;;;;;;7.70;3.10;;;15.20;99.90;;;;;;5005438;28;20527;-79
2022/06/17 04:34:20;;;;;;;5.20;3.50;;;15.20;99.90;;;;;;4990809;28;20446;-79
2022/06/17 04:37:05;;;;;;;2.90;2.70;;;15.20;99.90;;;;;;4990732;28;20797;-79
2022/06/17 04:39:39;;;;;;;3.10;2.77;;;15.10;99.90;;;;;;4990904;28;20498;-79
2022/06/17 04:42:10;;;;;;;2.90;2.60;;;15.20;99.90;;;;;;5005616;28;20783;-79
2022/06/17 04:44:35;;;;;;;3.20;2.90;;;15.30;99.90;;;;;;4990845;28;20450;-79
2022/06/17 04:47:12;;;;;;;3.10;2.63;;;15.40;99.90;;;;;;4989607;28;21367;-79
2022/06/17 04:49:43;;;;;;;5.50;3.17;;;15.40;99.90;;;;;;4989236;28;20284;-79
2022/06/17 04:52:17;;;;;;;4.63;2.90;;;15.40;99.90;;;;;;4989115;28;20919;-79
2022/06/17 04:54:43;;;;;;;7.13;2.77;;;15.50;99.90;;;;;;4990512;28;20461;-78
2022/06/17 04:57:10;;;;;;;7.10;3.80;;;15.70;99.90;;;;;;4990487;28;20421;-78
2022/06/17 04:59:44;;;;;;;3.70;3.13;;;15.80;99.90;;;;;;4990369;28;20419;-77
2022/06/17 05:02:21;;;;;;;3.47;2.53;;;15.60;99.90;;;;;;4992213;28;20410;-82
2022/06/17 05:04:49;;;;;;;9.23;2.97;;;15.60;99.90;;;;;;4991472;28;20456;-82
2022/06/17 05:07:15;;;;;;;3.07;2.80;;;15.60;99.90;;;;;;4991350;28;20451;-80
2022/06/17 05:10:04;;;;;;;5.60;3.17;;;15.70;99.90;;;;;;5005936;28;20469;-80
2022/06/17 05:12:45;;;;;;;6.23;2.60;;;15.70;99.90;;;;;;4990715;28;20430;-80
2022/06/17 05:15:17;;;;;;;5.43;2.70;;;15.80;99.90;;;;;;4990977;28;20402;-80
2022/06/17 05:17:43;;;;;;;4.37;2.63;;;16.00;99.90;;;;;;5005733;28;20943;-80
2022/06/17 05:20:21;;;;;;;6.30;2.40;;;16.20;99.90;;;;;;5005645;28;20456;-80
2022/06/17 05:22:55;;;;;;;3.40;2.80;;;16.30;99.90;;;;;;5005380;28;20442;-80
2022/06/17 05:25:27;;;;;;;2.70;2.50;;;16.50;99.90;;;;;;4988799;28;20490;-81
2022/06/17 05:27:53;;;;;;;2.80;2.60;;;16.60;99.90;;;;;;4990309;28;20399;-80
2022/06/17 05:30:19;;;;;;;3.57;2.70;;;16.80;99.90;;;;;;4989079;28;20524;-80
2022/06/17 05:32:48;;;;;;;9.87;4.00;;;17.00;99.90;;;;;;4990283;28;20198;-82
2022/06/17 05:35:14;;;;;;;4.80;3.60;;;17.10;99.90;;;;;;4988834;28;20420;-81
2022/06/17 05:37:40;;;;;;;5.90;2.87;;;17.20;99.90;;;;;;5004831;28;20941;-82
2022/06/17 05:40:08;;;;;;;3.47;2.50;;;17.40;99.90;;;;;;4989062;28;20495;-81
2022/06/17 05:42:35;;;;;;;3.17;2.60;;;17.40;99.90;;;;;;4988477;28;20773;-75
2022/06/17 05:45:00;;;;;;;3.20;2.80;;;17.50;99.90;;;;;;5003838;28;20537;-77
2022/06/17 05:47:28;;;;;;;3.10;2.70;;;17.60;99.90;;;;;;4987399;28;20526;-77
2022/06/17 05:49:54;;;;;;;4.50;2.80;;;17.70;99.90;;;;;;4988548;28;20284;-77
2022/06/17 05:52:20;;;;;;;3.03;2.30;;;17.90;99.90;;;;;;4989143;28;20479;-77
2022/06/17 05:54:46;;;;;;;4.70;2.23;;;18.00;99.90;;;;;;4987249;28;20185;-77
2022/06/17 05:57:12;;;;;;;2.87;2.43;;;18.20;99.90;;;;;;4988707;28;20679;-77
2022/06/17 05:59:37;;;;;;;5.80;3.20;;;18.40;99.90;;;;;;4987175;28;20467;-77
2022/06/17 06:02:04;;;;;;;6.00;2.73;;;18.50;99.90;;;;;;4971178;28;20202;-77
2022/06/17 06:04:31;;;;;;;3.57;2.70;;;18.70;99.90;;;;;;4988817;28;20213;-77
2022/06/17 06:06:57;;;;;;;6.40;2.93;;;18.80;99.90;;;;;;4990099;28;20424;-77
2022/06/17 06:09:23;;;;;;;4.97;2.63;;;18.90;99.90;;;;;;4989936;28;20464;-78
2022/06/17 06:11:48;;;;;;;4.80;2.80;;;19.10;99.70;;;;;;4988142;28;20507;-78
2022/06/17 06:14:14;;;;;;;4.23;2.43;;;19.20;99.10;;;;;;4989314;28;20295;-77
2022/06/17 06:16:40;;;;;;;4.17;3.07;;;19.20;99.90;;;;;;5004162;28;20658;-78
2022/06/17 06:19:05;;;;;;;4.57;3.20;;;19.30;99.90;;;;;;4987744;28;20268;-77
2022/06/17 06:21:32;;;;;;;8.03;3.10;;;19.40;99.60;;;;;;4989238;28;20924;-78
2022/06/17 06:23:57;;;;;;;21.50;3.80;;;19.60;99.90;;;;;;4988176;28;20211;-76
2022/06/17 06:26:24;;;;;;;5.00;2.70;;;19.70;98.30;;;;;;4987499;28;20481;-76
2022/06/17 06:28:50;;;;;;;5.43;3.00;;;19.70;97.40;;;;;;4988214;28;20841;-75
2022/06/17 06:31:32;;;;;;;71.67;4.87;;;19.80;96.40;;;;;;4988259;28;20424;-76
2022/06/17 06:33:58;;;;;;;5.60;2.80;;;20.00;99.60;;;;;;4988316;28;20671;-76
2022/06/17 06:36:24;;;;;;;6.20;2.93;;;20.00;98.30;;;;;;4988266;28;20470;-76
2022/06/17 06:38:50;;;;;;;5.80;2.40;;;20.00;98.30;;;;;;4988587;28;20416;-76
2022/06/17 06:41:17;;;;;;;2.67;2.47;;;20.10;97.20;;;;;;4988376;28;20428;-76
2022/06/17 06:43:44;;;;;;;4.20;2.57;;;20.10;97.50;;;;;;5002972;28;20202;-76
2022/06/17 06:46:13;;;;;;;6.63;2.97;;;20.10;96.50;;;;;;4987993;28;20522;-76
2022/06/17 06:48:39;;;;;;;3.20;2.90;;;20.20;95.50;;;;;;4986593;28;20471;-76
2022/06/17 06:51:05;;;;;;;7.90;2.70;;;20.30;96.10;;;;;;4988512;28;21065;-76
2022/06/17 06:53:30;;;;;;;4.90;2.53;;;20.50;97.10;;;;;;4986644;28;20437;-76
2022/06/17 06:55:56;;;;;;;3.20;2.90;;;20.70;96.40;;;;;;4987921;28;20178;-76
2022/06/17 06:58:24;;;;;;;4.33;2.90;;;20.70;96.60;;;;;;4987960;28;20200;-76
2022/06/17 07:00:52;;;;;;;12.10;2.80;;;20.80;96.00;;;;;;4970356;28;20209;-76
2022/06/17 07:03:19;;;;;;;83.23;7.90;;;20.90;98.50;;;;;;4987839;28;20457;-75
2022/06/17 07:05:50;;;;;;;5.80;3.30;;;21.10;98.50;;;;;;4987816;28;20425;-76
2022/06/17 07:08:18;;;;;;;5.27;2.90;;;21.20;97.60;;;;;;4987870;28;20409;-76
2022/06/17 07:10:44;;;;;;;3.27;2.57;;;21.30;97.30;;;;;;4987909;28;20425;-76
2022/06/17 07:13:11;;;;;;;4.83;3.03;;;21.20;97.00;;;;;;5002717;28;20467;-76
2022/06/17 07:15:40;;;;;;;30.43;3.60;;;21.20;97.90;;;;;;4986397;28;20421;-75
2022/06/17 07:18:25;;;;;;;3.10;2.80;;;21.30;97.40;;;;;;4988005;28;20552;-75
2022/06/17 07:20:54;;;;;;;3.50;2.60;;;21.50;97.90;;;;;;4988122;28;20871;-75
2022/06/17 07:23:33;;;;;;;108.40;30.77;;;21.50;98.00;;;;;;4987706;28;20494;-76
2022/06/17 07:26:00;;;;;;;459.57;118.53;;;21.40;99.60;;;;;;4987710;28;20432;-76
2022/06/17 07:28:27;;;;;;;465.63;135.70;;;21.40;99.90;;;;;;4988161;28;20417;-76
2022/06/17 07:30:55;;;;;;;363.37;71.70;;;21.40;99.90;;;;;;4987735;28;20427;-75
2022/06/17 07:33:22;;;;;;;508.73;130.13;;;21.30;99.90;;;;;;4987722;28;20433;-75
2022/06/17 07:35:53;;;;;;;138.50;31.23;;;21.00;99.90;;;;;;4988087;28;20412;-75
2022/06/17 07:41:07;;;;;;;21.47;5.87;;;21.10;99.90;;;;;;4992007;28;20793;-75
2022/06/17 07:43:33;;;;;;;21.80;7.07;;;21.20;99.90;;;;;;4991323;28;20443;-75
2022/06/17 07:46:01;;;;;;;462.10;98.40;;;21.20;99.90;;;;;;4989333;28;20457;-75
2022/06/17 07:48:27;;;;;;;135.90;30.97;;;21.30;99.90;;;;;;4991078;28;20432;-75
2022/06/17 07:50:58;;;;;;;71.87;17.37;;;21.10;99.90;;;;;;4991113;28;20432;-75
2022/06/17 07:53:28;;;;;;;229.93;66.93;;;21.30;99.90;;;;;;4989478;28;20492;-74
2022/06/17 07:55:55;;;;;;;143.03;40.23;;;21.30;99.90;;;;;;4990989;28;20466;-75
2022/06/17 07:58:21;;;;;;;188.03;41.47;;;21.50;99.90;;;;;;4989934;28;20484;-75
2022/06/17 08:00:47;;;;;;;49.90;13.53;;;21.80;99.90;;;;;;4991098;28;20916;-75
2022/06/17 08:03:18;;;;;;;282.40;59.07;;;21.70;99.90;;;;;;4990658;28;21103;-74
2022/06/17 08:05:48;;;;;;;8.00;3.80;;;21.60;99.90;;;;;;4990595;28;20941;-75
2022/06/17 08:08:21;;;;;;;462.77;169.10;;;21.60;99.90;;;;;;4990569;28;20450;-75
2022/06/17 08:10:48;;;;;;;17.97;6.80;;;21.60;99.90;;;;;;4990578;28;20511;-75
2022/06/17 08:13:13;;;;;;;139.30;47.20;;;21.70;99.90;;;;;;4990060;28;21166;-75
2022/06/17 08:15:39;;;;;;;961.67;163.13;;;21.70;99.90;;;;;;4989014;28;20527;-75
2022/06/17 08:18:05;;;;;;;53.10;17.13;;;20.00;99.90;;;;;;4990239;28;20280;-75
2022/06/17 08:20:33;;;;;;;134.80;34.70;;;18.50;99.90;;;;;;4990379;28;20261;-75
2022/06/17 08:23:02;;;;;;;53.47;19.30;;;18.80;99.90;;;;;;4991327;28;20241;-75
2022/06/17 08:25:27;;;;;;;17.37;7.50;;;18.40;99.90;;;;;;4990284;28;20417;-75
2022/06/17 08:27:55;;;;;;;9.73;3.90;;;18.40;99.90;;;;;;4988515;28;20440;-75
2022/06/17 08:30:27;;;;;;;11.03;4.53;;;18.30;99.90;;;;;;4990040;28;20586;-75
2022/06/17 08:32:55;;;;;;;6.70;3.80;;;18.40;99.90;;;;;;4989862;28;20441;-75
2022/06/17 08:35:29;;;;;;;10.73;3.70;;;18.60;99.90;;;;;;4989842;28;20992;-76
2022/06/17 08:37:57;;;;;;;6.73;3.00;;;18.90;99.90;;;;;;4989897;28;20448;-75
2022/06/17 08:40:41;;;;;;;3.83;2.80;;;19.40;99.90;;;;;;4989670;28;20512;-75
2022/06/17 08:43:45;;;;;;;5.40;2.47;;;19.90;99.90;;;;;;4989776;28;20957;-75
2022/06/17 08:46:26;;;;;;;4.47;3.50;;;20.60;99.90;;;;;;4989907;28;20427;-75
2022/06/17 08:49:11;;;;;;;6.17;3.23;;;21.20;99.90;;;;;;4989015;28;20456;-75
2022/06/17 08:51:45;;;;;;;2.63;2.43;;;21.80;99.90;;;;;;4989921;28;20429;-74
2022/06/17 08:54:20;;;;;;;2.57;2.37;;;22.30;99.90;;;;;;4989922;28;20443;-75
2022/06/17 08:57:13;;;;;;;5.87;2.50;;;22.80;99.90;;;;;;4989946;28;20417;-75
2022/06/17 08:59:50;;;;;;;4.93;2.63;;;23.20;99.90;;;;;;4989809;28;20425;-76
2022/06/17 09:02:48;;;;;;;7.73;2.80;;;23.60;99.90;;;;;;4990820;28;20499;-77
2022/06/17 09:05:32;;;;;;;9.20;2.63;;;24.10;99.90;;;;;;4977859;28;20437;-76
2022/06/17 09:08:14;;;;;;;6.83;3.00;;;24.30;99.00;;;;;;4989447;28;20430;-76
2022/06/17 09:10:57;;;;;;;4.63;2.73;;;24.70;99.90;;;;;;4990040;28;20467;-76
2022/06/17 09:13:57;;;;;;;3.87;2.40;;;24.90;91.20;;;;;;4989801;28;20485;-76
2022/06/17 09:16:46;;;;;;;5.47;2.40;;;25.20;95.40;;;;;;4991596;28;20435;-75
2022/06/17 09:19:17;;;;;;;3.87;2.20;;;25.40;91.20;;;;;;4991697;28;20419;-76
2022/06/17 09:21:51;;;;;;;4.03;1.93;;;25.60;92.00;;;;;;4989558;28;20442;-75
2022/06/17 09:24:23;;;;;;;1.80;1.70;;;25.80;90.10;;;;;;5005430;28;20454;-75
2022/06/17 09:26:55;;;;;;;3.00;2.20;;;26.00;91.00;;;;;;4989535;28;20424;-75
2022/06/17 09:29:26;;;;;;;6.10;2.30;;;26.30;83.90;;;;;;4987903;28;20943;-75
2022/06/17 09:32:03;;;;;;;2.10;1.90;;;26.40;77.10;;;;;;4989554;28;20405;-75
2022/06/17 09:35:09;;;;;;;4.50;2.07;;;26.50;83.30;;;;;;4989585;28;20493;-75
2022/06/17 09:37:38;;;;;;;5.20;2.10;;;26.70;80.10;;;;;;4989484;28;20417;-75
2022/06/17 09:40:27;;;;;;;2.10;1.90;;;26.90;85.00;;;;;;4989370;28;20425;-76
2022/06/17 09:43:28;;;;;;;2.80;2.60;;;27.20;79.70;;;;;;4989331;28;20452;-75
2022/06/17 09:46:17;;;;;;;2.90;2.33;;;27.10;77.70;;;;;;4988910;28;20507;-76
2022/06/17 09:49:02;;;;;;;5.67;3.07;;;27.30;78.00;;;;;;4988907;28;20468;-76
2022/06/17 09:51:34;;;;;;;3.40;2.30;;;27.50;78.60;;;;;;4989044;28;20424;-76
2022/06/17 09:54:12;;;;;;;3.20;2.30;;;27.80;79.10;;;;;;4988718;28;21033;-76
2022/06/17 09:56:49;;;;;;;2.30;2.20;;;28.00;74.60;;;;;;5003945;28;20444;-76
2022/06/17 09:59:17;;;;;;;6.10;2.40;;;28.20;75.10;;;;;;4988862;28;20417;-76
2022/06/17 10:01:44;;;;;;;5.70;3.07;;;28.40;70.30;;;;;;4987296;28;21018;-76
2022/06/17 10:04:12;;;;;;;3.00;2.00;;;28.40;69.40;;;;;;4989001;28;20531;-76
2022/06/17 10:07:00;;;;;;;3.53;1.87;;;28.70;69.70;;;;;;4988965;28;20433;-76
2022/06/17 10:09:47;;;;;;;4.10;2.10;;;28.80;69.10;;;;;;4988513;28;20472;-76
2022/06/17 10:12:27;;;;;;;2.10;1.30;;;28.80;67.00;;;;;;4987357;28;20515;-76
2022/06/17 10:14:56;;;;;;;2.93;2.03;;;29.00;66.10;;;;;;4988657;28;20522;-76
2022/06/17 10:20:41;;;;;;;3.73;1.80;;;29.10;66.80;;;;;;4989041;28;20924;-75
2022/06/17 10:23:24;;;;;;;3.30;1.80;;;29.00;63.70;;;;;;4989345;28;20451;-76
2022/06/17 10:26:08;;;;;;;1.50;1.40;;;29.10;61.00;;;;;;4989604;28;20479;-76
2022/06/17 10:28:46;;;;;;;1.63;1.53;;;28.90;57.30;;;;;;4988415;28;20465;-75
2022/06/17 10:31:18;;;;;;;3.97;2.17;;;29.10;63.40;;;;;;4989989;28;20419;-76
2022/06/17 10:33:44;;;;;;;6.47;1.40;;;29.00;64.60;;;;;;4989783;28;20488;-76
2022/06/17 10:36:10;;;;;;;1.80;1.70;;;28.80;64.20;;;;;;4988251;28;20842;-76
2022/06/17 10:38:47;;;;;;;3.27;1.77;;;28.40;60.10;;;;;;4988457;28;20914;-76
2022/06/17 10:41:16;;;;;;;2.10;1.60;;;28.30;64.80;;;;;;4990600;28;20431;-75
2022/06/17 10:43:49;;;;;;;2.07;1.77;;;28.40;66.30;;;;;;4989714;28;20451;-76
2022/06/17 10:46:21;;;;;;;1.93;1.47;;;28.40;63.20;;;;;;4989801;28;20424;-75
2022/06/17 10:48:59;;;;;;;2.30;1.30;;;28.60;61.80;;;;;;4989463;28;20980;-76
2022/06/17 10:51:27;;;;;;;2.80;1.60;;;28.40;61.90;;;;;;4987568;28;20428;-76
2022/06/17 10:54:02;;;;;;;2.93;1.57;;;28.50;63.50;;;;;;4988938;28;20498;-76
2022/06/17 10:56:41;;;;;;;7.60;1.87;;;28.60;60.20;;;;;;4987690;28;20432;-76
2022/06/17 10:59:10;;;;;;;2.80;1.70;;;28.60;66.60;;;;;;4988900;28;20421;-76
2022/06/17 11:01:45;;;;;;;1.60;1.50;;;28.60;65.10;;;;;;4988785;28;20892;-76
2022/06/17 11:04:15;;;;;;;2.13;1.43;;;28.70;63.80;;;;;;4988411;28;20446;-76
2022/06/17 11:07:18;;;;;;;5.53;1.50;;;28.70;62.90;;;;;;4988282;28;20431;-76
2022/06/17 11:09:56;;;;;;;2.20;1.30;;;28.50;62.90;;;;;;4979805;28;20526;-76
2022/06/17 11:12:36;;;;;;;4.60;1.70;;;28.70;62.90;;;;;;4990745;28;20923;-76
2022/06/17 11:15:16;;;;;;;2.70;1.40;;;28.80;62.70;;;;;;4991818;28;20442;-76
2022/06/17 11:17:46;;;;;;;1.57;1.23;;;28.80;61.10;;;;;;4992385;28;20545;-76
2022/06/17 11:20:14;;;;;;;3.63;1.50;;;29.00;59.60;;;;;;4990498;28;20436;-76
2022/06/17 11:22:41;;;;;;;1.37;1.00;;;29.00;59.00;;;;;;4992112;28;20446;-76
2022/06/17 11:25:19;;;;;;;1.57;1.30;;;29.00;57.10;;;;;;4990843;28;20998;-76
2022/06/17 11:27:53;;;;;;;1.73;1.07;;;29.10;56.60;;;;;;4992005;28;20516;-75
2022/06/17 11:30:23;;;;;;;2.77;1.10;;;28.90;57.50;;;;;;4991922;28;20464;-76
2022/06/17 11:32:51;;;;;;;4.00;1.00;;;29.00;59.00;;;;;;4991632;28;20429;-76
2022/06/17 11:35:26;;;;;;;2.63;1.30;;;29.10;57.40;;;;;;5006383;28;20516;-76
2022/06/17 11:37:54;;;;;;;1.47;1.10;;;29.10;56.10;;;;;;4990543;28;20431;-76
2022/06/17 11:40:26;;;;;;;2.80;1.40;;;29.10;55.80;;;;;;4990393;28;20452;-76
2022/06/17 11:43:05;;;;;;;9.43;1.70;;;29.10;53.50;;;;;;5006569;28;20455;-76
2022/06/17 11:45:36;;;;;;;3.20;1.90;;;29.10;54.30;;;;;;4992012;28;20429;-76
2022/06/17 11:48:11;;;;;;;2.47;1.37;;;29.10;56.70;;;;;;4991712;28;20596;-76
2022/06/17 11:50:41;;;;;;;1.20;1.10;;;29.20;55.50;;;;;;4991552;28;20468;-76
2022/06/17 11:53:19;;;;;;;1.70;1.23;;;29.20;54.40;;;;;;4990170;28;20443;-76
2022/06/17 11:55:47;;;;;;;2.03;1.17;;;29.30;54.10;;;;;;4991560;28;20429;-76
2022/06/17 11:58:17;;;;;;;1.97;1.20;;;29.20;53.90;;;;;;4992199;28;20737;-76
2022/06/17 12:00:51;;;;;;;1.37;1.27;;;29.20;53.80;;;;;;4992597;28;20428;-76
2022/06/17 12:03:20;;;;;;;3.80;1.57;;;29.30;56.40;;;;;;5007625;28;20460;-76
2022/06/17 12:06:00;;;;;;;4.50;1.30;;;29.40;55.30;;;;;;4992705;28;20425;-76
2022/06/17 12:08:41;;;;;;;2.47;1.67;;;29.50;56.80;;;;;;4992680;28;21209;-75
2022/06/17 12:11:34;;;;;;;5.63;1.37;;;29.50;55.50;;;;;;4992789;28;20406;-76
2022/06/17 12:14:04;;;;;;;2.00;1.30;;;29.60;55.60;;;;;;4992729;28;20488;-76
2022/06/17 12:16:29;;;;;;;2.90;1.20;;;29.80;52.50;;;;;;4992698;28;20516;-76
2022/06/17 12:18:58;;;;;;;6.30;1.00;;;29.70;52.90;;;;;;4992750;28;20499;-76
2022/06/17 12:21:42;;;;;;;2.87;1.10;;;29.50;49.70;;;;;;4992948;28;20220;-75
2022/06/17 12:24:13;;;;;;;2.10;1.20;;;29.40;49.50;;;;;;4992530;28;20898;-75
2022/06/17 12:26:48;;;;;;;1.53;1.37;;;29.30;49.00;;;;;;4990270;28;20435;-75
2022/06/17 12:29:33;;;;;;;2.00;1.20;;;29.20;51.40;;;;;;4992631;28;20471;-76
2022/06/17 12:32:01;;;;;;;1.33;1.23;;;29.40;51.70;;;;;;4992615;28;20428;-76
2022/06/17 12:34:56;;;;;;;2.23;1.30;;;29.50;53.40;;;;;;4992261;28;20429;-75
2022/06/17 12:37:40;;;;;;;2.57;1.30;;;29.50;50.90;;;;;;4979535;28;20436;-76
2022/06/17 12:40:21;;;;;;;1.43;1.00;;;29.30;53.00;;;;;;4992493;28;20431;-76
2022/06/17 12:43:03;;;;;;;2.20;1.10;;;29.40;54.40;;;;;;4992154;28;20433;-75
2022/06/17 12:45:41;;;;;;;1.33;1.00;;;29.30;51.40;;;;;;4991763;28;20416;-75
2022/06/17 12:48:09;;;;;;;3.17;1.27;;;29.30;52.20;;;;;;4991980;28;20518;-75
2022/06/17 12:53:34;;;;;;;1.57;1.00;;;29.60;52.50;;;;;;4993625;28;20513;-75
2022/06/17 12:56:12;;;;;;;4.73;1.30;;;29.50;51.40;;;;;;4992321;28;20487;-76
2022/06/17 12:59:01;;;;;;;2.07;1.17;;;29.60;53.30;;;;;;4992071;28;20420;-76
2022/06/17 13:01:40;;;;;;;1.10;1.00;;;29.40;52.20;;;;;;4991449;28;20426;-76
2022/06/17 13:04:30;;;;;;;1.47;1.07;;;29.30;51.70;;;;;;5004559;28;20445;-76
2022/06/17 13:07:08;;;;;;;1.00;0.90;;;29.60;51.90;;;;;;4990099;28;20467;-75
2022/06/17 13:09:55;;;;;;;2.60;0.93;;;29.50;49.80;;;;;;4989671;28;20472;-75
2022/06/17 13:12:40;;;;;;;1.50;1.20;;;29.50;52.60;;;;;;4989825;28;20502;-75
2022/06/17 13:15:17;;;;;;;4.93;1.20;;;29.60;51.30;;;;;;4989792;28;20443;-76
2022/06/17 13:18:01;;;;;;;1.23;0.93;;;29.70;50.70;;;;;;4989752;28;20408;-76
2022/06/17 13:20:35;;;;;;;1.53;0.90;;;29.70;49.40;;;;;;4989783;28;20740;-76
2022/06/17 13:23:07;;;;;;;2.47;1.10;;;29.80;51.70;;;;;;4987931;28;20448;-76
2022/06/17 13:25:36;;;;;;;1.97;1.07;;;29.90;53.20;;;;;;4987819;28;20871;-75